sensor_id;sensor_type;location;lat;lon;timestamp;pressure;altitude;pressure_sealevel;temperature;humidity
48424;BME280;34232;42.502;26.014;2022-11-28T00:00:36;100859.53;;;7.58;69.53
48424;BME280;34232;42.502;26.014;2022-11-28T00:03:02;100850.06;;;7.55;69.46
48424;BME280;34232;42.502;26.014;2022-11-28T00:05:27;100850.06;;;7.55;69.66
48424;BME280;34232;42.502;26.014;2022-11-28T00:07:52;100851.75;;;7.56;70.20
48424;BME280;34232;42.502;26.014;2022-11-28T00:10:20;100854.44;;;7.55;70.06
48424;BME280;34232;42.502;26.014;2022-11-28T00:12:45;100850.38;;;7.49;70.05
48424;BME280;34232;42.502;26.014;2022-11-28T00:15:11;100853.94;;;7.48;70.56
48424;BME280;34232;42.502;26.014;2022-11-28T00:17:36;100852.25;;;7.47;70.27
48424;BME280;34232;42.502;26.014;2022-11-28T00:20:03;100851.25;;;7.50;70.27
48424;BME280;34232;42.502;26.014;2022-11-28T00:22:28;100842.19;;;7.55;70.13
48424;BME280;34232;42.502;26.014;2022-11-28T00:24:54;100851.41;;;7.62;69.69
48424;BME280;34232;42.502;26.014;2022-11-28T00:27:20;100849.25;;;7.69;69.89
48424;BME280;34232;42.502;26.014;2022-11-28T00:29:45;100848.16;;;7.73;70.15
48424;BME280;34232;42.502;26.014;2022-11-28T00:32:10;100852.22;;;7.79;69.61
48424;BME280;34232;42.502;26.014;2022-11-28T00:34:36;100859.13;;;7.80;69.93
48424;BME280;34232;42.502;26.014;2022-11-28T00:37:01;100852.75;;;7.84;69.07
48424;BME280;34232;42.502;26.014;2022-11-28T00:39:27;100844.22;;;7.80;68.80
48424;BME280;34232;42.502;26.014;2022-11-28T00:41:52;100843.59;;;7.77;68.54
48424;BME280;34232;42.502;26.014;2022-11-28T00:44:18;100850.31;;;7.81;68.35
48424;BME280;34232;42.502;26.014;2022-11-28T00:46:43;100845.06;;;7.81;68.85
48424;BME280;34232;42.502;26.014;2022-11-28T00:49:08;100820.25;;;7.72;68.24
48424;BME280;34232;42.502;26.014;2022-11-28T00:51:34;100830.50;;;7.77;68.92
48424;BME280;34232;42.502;26.014;2022-11-28T00:54:02;100840.03;;;7.78;68.87
48424;BME280;34232;42.502;26.014;2022-11-28T00:56:30;100845.28;;;7.78;68.55
48424;BME280;34232;42.502;26.014;2022-11-28T00:58:57;100840.38;;;7.71;69.01
48424;BME280;34232;42.502;26.014;2022-11-28T01:01:42;100833.53;;;7.69;69.15
48424;BME280;34232;42.502;26.014;2022-11-28T01:04:10;100823.16;;;7.67;69.43
48424;BME280;34232;42.502;26.014;2022-11-28T01:06:42;100819.41;;;7.71;69.43
48424;BME280;34232;42.502;26.014;2022-11-28T01:09:20;100830.28;;;7.80;69.47
48424;BME280;34232;42.502;26.014;2022-11-28T01:11:48;100830.28;;;7.80;69.72
48424;BME280;34232;42.502;26.014;2022-11-28T01:14:14;100818.13;;;7.79;70.21
48424;BME280;34232;42.502;26.014;2022-11-28T01:16:40;100827.50;;;7.83;69.16
48424;BME280;34232;42.502;26.014;2022-11-28T01:19:06;100815.31;;;7.82;69.51
48424;BME280;34232;42.502;26.014;2022-11-28T01:21:32;100822.91;;;7.86;68.79
48424;BME280;34232;42.502;26.014;2022-11-28T01:23:58;100813.28;;;7.87;68.83
48424;BME280;34232;42.502;26.014;2022-11-28T01:26:26;100816.66;;;7.89;69.14
48424;BME280;34232;42.502;26.014;2022-11-28T01:28:53;100798.09;;;7.78;68.76
48424;BME280;34232;42.502;26.014;2022-11-28T01:31:22;100807.00;;;7.75;69.50
48424;BME280;34232;42.502;26.014;2022-11-28T01:33:48;100797.13;;;7.64;69.91
48424;BME280;34232;42.502;26.014;2022-11-28T01:36:15;100799.31;;;7.72;69.95
48424;BME280;34232;42.502;26.014;2022-11-28T01:38:41;100802.50;;;7.77;69.75
48424;BME280;34232;42.502;26.014;2022-11-28T01:41:07;100798.09;;;7.78;69.61
48424;BME280;34232;42.502;26.014;2022-11-28T01:43:34;100797.91;;;7.81;69.41
48424;BME280;34232;42.502;26.014;2022-11-28T01:45:59;100791.81;;;7.80;69.69
48424;BME280;34232;42.502;26.014;2022-11-28T01:48:34;100786.47;;;7.82;69.30
48424;BME280;34232;42.502;26.014;2022-11-28T01:51:05;100784.91;;;7.79;69.48
48424;BME280;34232;42.502;26.014;2022-11-28T01:53:34;100784.78;;;7.81;69.88
48424;BME280;34232;42.502;26.014;2022-11-28T01:56:19;100777.78;;;7.81;69.22
48424;BME280;34232;42.502;26.014;2022-11-28T01:58:48;100777.50;;;7.71;69.49
48424;BME280;34232;42.502;26.014;2022-11-28T02:01:15;100769.03;;;7.66;69.93
48424;BME280;34232;42.502;26.014;2022-11-28T02:03:45;100772.41;;;7.68;69.14
48424;BME280;34232;42.502;26.014;2022-11-28T02:06:14;100758.34;;;7.55;69.57
48424;BME280;34232;42.502;26.014;2022-11-28T02:08:41;100765.03;;;7.61;69.90
48424;BME280;34232;42.502;26.014;2022-11-28T02:24:58;100764.81;;;7.64;67.35
48424;BME280;34232;42.502;26.014;2022-11-28T02:35:45;100753.69;;;7.60;65.95
48424;BME280;34232;42.502;26.014;2022-11-28T02:41:01;100747.28;;;7.50;67.96
48424;BME280;34232;42.502;26.014;2022-11-28T02:46:33;100759.34;;;7.38;67.59
48424;BME280;34232;42.502;26.014;2022-11-28T02:49:07;100758.75;;;7.33;69.16
48424;BME280;34232;42.502;26.014;2022-11-28T02:51:41;100753.34;;;7.36;69.17
48424;BME280;34232;42.502;26.014;2022-11-28T02:54:10;100748.09;;;7.36;68.50
48424;BME280;34232;42.502;26.014;2022-11-28T02:56:37;100744.28;;;7.42;67.95
48424;BME280;34232;42.502;26.014;2022-11-28T02:59:03;100744.13;;;7.45;68.29
48424;BME280;34232;42.502;26.014;2022-11-28T03:01:37;100749.16;;;7.48;67.98
48424;BME280;34232;42.502;26.014;2022-11-28T03:04:17;100735.50;;;7.43;66.99
48424;BME280;34232;42.502;26.014;2022-11-28T03:07:00;100740.19;;;7.52;66.35
48424;BME280;34232;42.502;26.014;2022-11-28T03:09:51;100737.41;;;7.55;66.33
48424;BME280;34232;42.502;26.014;2022-11-28T03:15:31;100738.88;;;7.45;64.51
48424;BME280;34232;42.502;26.014;2022-11-28T03:18:20;100739.06;;;7.42;63.33
48424;BME280;34232;42.502;26.014;2022-11-28T03:20:54;100736.81;;;7.50;63.60
48424;BME280;34232;42.502;26.014;2022-11-28T03:23:32;100741.72;;;7.56;63.54
48424;BME280;34232;42.502;26.014;2022-11-28T03:26:17;100737.97;;;7.60;63.17
48424;BME280;34232;42.502;26.014;2022-11-28T03:31:34;100731.22;;;7.56;62.94
48424;BME280;34232;42.502;26.014;2022-11-28T03:34:03;100734.13;;;7.52;62.95
48424;BME280;34232;42.502;26.014;2022-11-28T03:36:35;100731.59;;;7.50;62.21
48424;BME280;34232;42.502;26.014;2022-11-28T03:39:16;100738.31;;;7.40;63.37
48424;BME280;34232;42.502;26.014;2022-11-28T03:41:47;100736.63;;;7.39;63.03
48424;BME280;34232;42.502;26.014;2022-11-28T03:44:20;100747.47;;;7.47;63.42
48424;BME280;34232;42.502;26.014;2022-11-28T03:46:48;100748.81;;;7.54;63.24
48424;BME280;34232;42.502;26.014;2022-11-28T03:49:20;100752.56;;;7.64;63.11
48424;BME280;34232;42.502;26.014;2022-11-28T03:51:54;100758.75;;;7.63;63.08
48424;BME280;34232;42.502;26.014;2022-11-28T03:57:11;100761.75;;;7.71;63.15
48424;BME280;34232;42.502;26.014;2022-11-28T03:59:40;100750.63;;;7.68;62.32
48424;BME280;34232;42.502;26.014;2022-11-28T04:09:46;100766.91;;;7.73;62.46
48424;BME280;34232;42.502;26.014;2022-11-28T04:12:45;100745.47;;;7.66;62.15
48424;BME280;34232;42.502;26.014;2022-11-28T04:17:51;100763.81;;;7.81;62.88
48424;BME280;34232;42.502;26.014;2022-11-28T04:20:38;100765.34;;;7.85;62.63
48424;BME280;34232;42.502;26.014;2022-11-28T04:23:09;100760.69;;;7.90;62.82
48424;BME280;34232;42.502;26.014;2022-11-28T04:25:39;100760.69;;;7.90;62.24
48424;BME280;34232;42.502;26.014;2022-11-28T04:28:12;100758.16;;;7.88;62.51
48424;BME280;34232;42.502;26.014;2022-11-28T04:30:40;100766.59;;;7.93;61.67
48424;BME280;34232;42.502;26.014;2022-11-28T04:33:08;100767.59;;;7.91;62.55
48424;BME280;34232;42.502;26.014;2022-11-28T04:35:39;100771.16;;;7.90;62.43
48424;BME280;34232;42.502;26.014;2022-11-28T04:38:06;100754.84;;;7.70;62.30
48424;BME280;34232;42.502;26.014;2022-11-28T04:40:39;100774.72;;;7.89;62.30
48424;BME280;34232;42.502;26.014;2022-11-28T04:43:11;100775.56;;;7.89;62.69
48424;BME280;34232;42.502;26.014;2022-11-28T04:45:48;100779.78;;;7.92;62.85
48424;BME280;34232;42.502;26.014;2022-11-28T04:48:15;100788.56;;;7.91;62.20
48424;BME280;34232;42.502;26.014;2022-11-28T04:50:47;100784.34;;;7.88;62.51
48424;BME280;34232;42.502;26.014;2022-11-28T04:53:38;100782.94;;;7.83;63.37
48424;BME280;34232;42.502;26.014;2022-11-28T04:56:14;100778.63;;;7.82;63.14
48424;BME280;34232;42.502;26.014;2022-11-28T04:58:44;100785.19;;;7.89;63.20
48424;BME280;34232;42.502;26.014;2022-11-28T05:01:15;100790.44;;;7.89;63.10
48424;BME280;34232;42.502;26.014;2022-11-28T05:03:42;100780.88;;;7.88;63.24
48424;BME280;34232;42.502;26.014;2022-11-28T05:06:08;100786.03;;;7.89;63.33
48424;BME280;34232;42.502;26.014;2022-11-28T05:08:33;100780.97;;;7.86;63.26
48424;BME280;34232;42.502;26.014;2022-11-28T05:10:59;100793.16;;;7.87;62.61
48424;BME280;34232;42.502;26.014;2022-11-28T05:13:24;100778.63;;;7.82;62.94
48424;BME280;34232;42.502;26.014;2022-11-28T05:15:50;100794.16;;;7.85;62.33
48424;BME280;34232;42.502;26.014;2022-11-28T05:18:15;100782.00;;;7.84;62.31
48424;BME280;34232;42.502;26.014;2022-11-28T05:20:40;100787.63;;;7.78;62.55
48424;BME280;34232;42.502;26.014;2022-11-28T05:23:06;100786.09;;;7.73;62.73
48424;BME280;34232;42.502;26.014;2022-11-28T05:25:31;100788.31;;;7.65;62.32
48424;BME280;34232;42.502;26.014;2022-11-28T05:27:57;100791.53;;;7.70;62.81
48424;BME280;34232;42.502;26.014;2022-11-28T05:30:22;100796.94;;;7.67;62.12
48424;BME280;34232;42.502;26.014;2022-11-28T05:32:48;100776.03;;;7.52;61.49
48424;BME280;34232;42.502;26.014;2022-11-28T05:35:13;100795.34;;;7.65;61.26
48424;BME280;34232;42.502;26.014;2022-11-28T05:37:39;100796.09;;;7.67;62.16
48424;BME280;34232;42.502;26.014;2022-11-28T05:40:05;100783.00;;;7.67;62.28
48424;BME280;34232;42.502;26.014;2022-11-28T05:42:35;100797.06;;;7.80;61.94
48424;BME280;34232;42.502;26.014;2022-11-28T05:45:00;100801.09;;;7.86;62.52
48424;BME280;34232;42.502;26.014;2022-11-28T05:47:29;100799.25;;;7.88;62.11
48424;BME280;34232;42.502;26.014;2022-11-28T05:49:55;100792.72;;;7.95;61.38
48424;BME280;34232;42.502;26.014;2022-11-28T05:52:20;100800.09;;;7.88;60.44
48424;BME280;34232;42.502;26.014;2022-11-28T05:54:45;100789.34;;;7.93;60.69
48424;BME280;34232;42.502;26.014;2022-11-28T05:57:11;100793.44;;;7.97;61.07
48424;BME280;34232;42.502;26.014;2022-11-28T05:59:36;100785.22;;;8.03;62.29
48424;BME280;34232;42.502;26.014;2022-11-28T06:02:02;100780.72;;;8.05;61.95
48424;BME280;34232;42.502;26.014;2022-11-28T06:04:28;100766.88;;;8.03;61.96
48424;BME280;34232;42.502;26.014;2022-11-28T06:06:53;100779.53;;;8.11;62.03
48424;BME280;34232;42.502;26.014;2022-11-28T06:09:21;100775.75;;;8.15;62.24
48424;BME280;34232;42.502;26.014;2022-11-28T06:11:47;100782.78;;;8.14;62.60
48424;BME280;34232;42.502;26.014;2022-11-28T06:14:12;100787.75;;;8.04;61.76
48424;BME280;34232;42.502;26.014;2022-11-28T06:16:39;100783.63;;;8.00;62.66
48424;BME280;34232;42.502;26.014;2022-11-28T06:19:05;100784.47;;;8.01;62.76
48424;BME280;34232;42.502;26.014;2022-11-28T06:21:31;100779.88;;;8.04;62.76
48424;BME280;34232;42.502;26.014;2022-11-28T06:23:58;100770.69;;;7.97;63.14
48424;BME280;34232;42.502;26.014;2022-11-28T06:26:24;100781.47;;;8.07;62.96
48424;BME280;34232;42.502;26.014;2022-11-28T06:28:50;100779.63;;;8.09;63.02
48424;BME280;34232;42.502;26.014;2022-11-28T06:31:22;100776.78;;;8.12;62.58
48424;BME280;34232;42.502;26.014;2022-11-28T06:33:48;100772.38;;;8.13;63.18
48424;BME280;34232;42.502;26.014;2022-11-28T06:36:15;100782.78;;;8.14;62.34
48424;BME280;34232;42.502;26.014;2022-11-28T06:38:40;100774.16;;;8.12;62.96
48424;BME280;34232;42.502;26.014;2022-11-28T06:41:09;100775.84;;;8.13;62.10
48424;BME280;34232;42.502;26.014;2022-11-28T06:43:35;100776.31;;;8.20;62.08
48424;BME280;34232;42.502;26.014;2022-11-28T06:46:01;100774.38;;;8.23;62.53
48424;BME280;34232;42.502;26.014;2022-11-28T06:48:27;100774.19;;;8.26;62.06
48424;BME280;34232;42.502;26.014;2022-11-28T06:50:52;100773.97;;;8.29;61.76
48424;BME280;34232;42.502;26.014;2022-11-28T06:53:18;100777.53;;;8.28;61.23
48424;BME280;34232;42.502;26.014;2022-11-28T06:55:44;100767.03;;;8.28;61.70
48424;BME280;34232;42.502;26.014;2022-11-28T06:58:10;100775.50;;;8.33;60.62
48424;BME280;34232;42.502;26.014;2022-11-28T07:00:36;100775.03;;;8.27;60.82
48424;BME280;34232;42.502;26.014;2022-11-28T07:03:02;100776.25;;;8.21;61.23
48424;BME280;34232;42.502;26.014;2022-11-28T07:05:27;100782.78;;;8.28;61.21
48424;BME280;34232;42.502;26.014;2022-11-28T07:07:58;100778.13;;;8.33;61.44
48424;BME280;34232;42.502;26.014;2022-11-28T07:10:24;100779.91;;;8.33;61.19
48424;BME280;34232;42.502;26.014;2022-11-28T07:12:57;100757.41;;;8.29;61.94
48424;BME280;34232;42.502;26.014;2022-11-28T07:15:23;100764.66;;;8.39;62.45
48424;BME280;34232;42.502;26.014;2022-11-28T07:17:49;100750.22;;;8.32;63.30
48424;BME280;34232;42.502;26.014;2022-11-28T07:20:15;100762.78;;;8.41;63.55
48424;BME280;34232;42.502;26.014;2022-11-28T07:22:40;100758.38;;;8.42;64.16
48424;BME280;34232;42.502;26.014;2022-11-28T07:25:07;100759.22;;;8.43;64.31
48424;BME280;34232;42.502;26.014;2022-11-28T07:27:33;100768.22;;;8.38;64.47
48424;BME280;34232;42.502;26.014;2022-11-28T07:29:58;100763.69;;;8.26;66.26
48424;BME280;34232;42.502;26.014;2022-11-28T07:32:23;100760.31;;;8.24;67.06
48424;BME280;34232;42.502;26.014;2022-11-28T07:34:49;100747.66;;;8.31;66.30
48424;BME280;34232;42.502;26.014;2022-11-28T07:37:14;100749.91;;;8.23;66.70
48424;BME280;34232;42.502;26.014;2022-11-28T07:39:40;100750.13;;;8.34;66.84
48424;BME280;34232;42.502;26.014;2022-11-28T07:42:09;100752.47;;;8.38;67.06
48424;BME280;34232;42.502;26.014;2022-11-28T07:44:34;100744.03;;;8.33;68.36
48424;BME280;34232;42.502;26.014;2022-11-28T07:46:59;100745.25;;;8.28;66.88
48424;BME280;34232;42.502;26.014;2022-11-28T07:49:25;100752.53;;;8.23;69.27
48424;BME280;34232;42.502;26.014;2022-11-28T07:51:50;100734.81;;;8.12;68.58
48424;BME280;34232;42.502;26.014;2022-11-28T07:54:16;100753.56;;;8.20;69.26
48424;BME280;34232;42.502;26.014;2022-11-28T07:56:41;100754.91;;;8.27;70.16
48424;BME280;34232;42.502;26.014;2022-11-28T07:59:06;100753.22;;;8.26;70.50
48424;BME280;34232;42.502;26.014;2022-11-28T08:01:35;100753.22;;;8.26;70.59
48424;BME280;34232;42.502;26.014;2022-11-28T08:04:02;100748.16;;;8.23;70.53
48424;BME280;34232;42.502;26.014;2022-11-28T08:06:29;100737.25;;;8.29;71.43
48424;BME280;34232;42.502;26.014;2022-11-28T08:08:58;100730.91;;;8.19;70.38
48424;BME280;34232;42.502;26.014;2022-11-28T08:11:24;100735.03;;;8.23;69.83
48424;BME280;34232;42.502;26.014;2022-11-28T08:13:50;100736.16;;;8.19;67.66
48424;BME280;34232;42.502;26.014;2022-11-28T08:16:18;100739.88;;;8.15;69.67
48424;BME280;34232;42.502;26.014;2022-11-28T08:18:44;100734.38;;;8.05;66.95
48424;BME280;34232;42.502;26.014;2022-11-28T08:21:22;100734.38;;;8.05;66.25
48424;BME280;34232;42.502;26.014;2022-11-28T08:23:48;100730.72;;;8.08;65.02
48424;BME280;34232;42.502;26.014;2022-11-28T08:26:17;100732.94;;;8.14;65.34
48424;BME280;34232;42.502;26.014;2022-11-28T08:28:43;100714.69;;;8.13;65.16
48424;BME280;34232;42.502;26.014;2022-11-28T08:31:20;100729.59;;;8.26;65.29
48424;BME280;34232;42.502;26.014;2022-11-28T08:33:47;100731.50;;;8.38;66.38
48424;BME280;34232;42.502;26.014;2022-11-28T08:36:13;100732.78;;;8.46;66.54
48424;BME280;34232;42.502;26.014;2022-11-28T08:38:39;100727.75;;;8.43;66.70
48424;BME280;34232;42.502;26.014;2022-11-28T08:41:08;100733.00;;;8.43;65.97
48424;BME280;34232;42.502;26.014;2022-11-28T08:43:34;100734.28;;;8.50;65.64
48424;BME280;34232;42.502;26.014;2022-11-28T08:46:01;100738.22;;;8.57;65.91
48424;BME280;34232;42.502;26.014;2022-11-28T08:48:27;100733.91;;;8.56;66.04
48424;BME280;34232;42.502;26.014;2022-11-28T08:50:56;100734.66;;;8.58;65.19
48424;BME280;34232;42.502;26.014;2022-11-28T08:53:21;100721.53;;;8.58;65.32
48424;BME280;34232;42.502;26.014;2022-11-28T08:55:47;100723.75;;;8.64;65.09
48424;BME280;34232;42.502;26.014;2022-11-28T08:58:16;100714.09;;;8.64;64.16
48424;BME280;34232;42.502;26.014;2022-11-28T09:00:41;100721.59;;;8.70;64.25
48424;BME280;34232;42.502;26.014;2022-11-28T09:03:07;100726.53;;;8.75;64.04
48424;BME280;34232;42.502;26.014;2022-11-28T09:05:35;100711.22;;;8.82;64.05
48424;BME280;34232;42.502;26.014;2022-11-28T09:08:01;100714.50;;;8.85;63.77
48424;BME280;34232;42.502;26.014;2022-11-28T09:10:26;100710.19;;;8.84;63.48
48424;BME280;34232;42.502;26.014;2022-11-28T09:12:52;100718.16;;;8.83;62.57
48424;BME280;34232;42.502;26.014;2022-11-28T09:15:17;100710.09;;;8.86;61.86
48424;BME280;34232;42.502;26.014;2022-11-28T09:17:44;100701.00;;;8.77;61.50
48424;BME280;34232;42.502;26.014;2022-11-28T09:20:09;100696.03;;;8.87;61.28
48424;BME280;34232;42.502;26.014;2022-11-28T09:22:35;100684.88;;;8.83;61.75
48424;BME280;34232;42.502;26.014;2022-11-28T09:25:00;100688.25;;;8.85;61.77
48424;BME280;34232;42.502;26.014;2022-11-28T09:27:31;100693.50;;;8.85;61.58
48424;BME280;34232;42.502;26.014;2022-11-28T09:29:57;100684.03;;;8.83;62.03
48424;BME280;34232;42.502;26.014;2022-11-28T09:32:22;100684.13;;;8.81;61.81
48424;BME280;34232;42.502;26.014;2022-11-28T09:34:47;100663.22;;;8.80;62.33
48424;BME280;34232;42.502;26.014;2022-11-28T09:37:15;100662.84;;;8.86;62.37
48424;BME280;34232;42.502;26.014;2022-11-28T09:39:40;100660.31;;;8.84;62.20
48424;BME280;34232;42.502;26.014;2022-11-28T09:42:32;100649.63;;;8.87;62.55
48424;BME280;34232;42.502;26.014;2022-11-28T09:45:04;100645.59;;;8.82;61.54
48424;BME280;34232;42.502;26.014;2022-11-28T09:47:31;100639.50;;;8.81;62.16
48424;BME280;34232;42.502;26.014;2022-11-28T09:50:02;100641.00;;;8.85;62.80
48424;BME280;34232;42.502;26.014;2022-11-28T09:52:41;100634.06;;;8.84;62.01
48424;BME280;34232;42.502;26.014;2022-11-28T09:55:12;100635.75;;;8.85;61.95
48424;BME280;34232;42.502;26.014;2022-11-28T09:57:44;100627.78;;;8.87;61.86
48424;BME280;34232;42.502;26.014;2022-11-28T10:00:44;100630.28;;;8.88;60.18
48424;BME280;34232;42.502;26.014;2022-11-28T10:08:29;100625.25;;;8.85;59.08
48424;BME280;34232;42.502;26.014;2022-11-28T10:11:20;100611.19;;;8.86;59.26
48424;BME280;34232;42.502;26.014;2022-11-28T10:16:48;100613.50;;;8.91;59.00
48424;BME280;34232;42.502;26.014;2022-11-28T10:19:26;100611.91;;;8.88;58.67
48424;BME280;34232;42.502;26.014;2022-11-28T10:21:56;100613.28;;;8.94;60.61
48424;BME280;34232;42.502;26.014;2022-11-28T10:24:38;100623.09;;;9.04;61.06
48424;BME280;34232;42.502;26.014;2022-11-28T10:27:06;100621.94;;;9.08;61.29
48424;BME280;34232;42.502;26.014;2022-11-28T10:32:14;100615.22;;;9.17;63.28
48424;BME280;34232;42.502;26.014;2022-11-28T10:34:44;100609.97;;;9.17;62.42
48424;BME280;34232;42.502;26.014;2022-11-28T10:37:24;100609.84;;;9.19;62.87
48424;BME280;34232;42.502;26.014;2022-11-28T10:39:50;100601.13;;;9.18;62.75
48424;BME280;34232;42.502;26.014;2022-11-28T10:42:34;100572.16;;;9.07;61.82
48424;BME280;34232;42.502;26.014;2022-11-28T10:45:15;100599.91;;;9.24;61.78
48424;BME280;34232;42.502;26.014;2022-11-28T10:50:40;100591.88;;;9.12;58.59
48424;BME280;34232;42.502;26.014;2022-11-28T11:01:37;100570.13;;;8.98;59.46
48424;BME280;34232;42.502;26.014;2022-11-28T11:04:04;100569.63;;;9.05;58.53
48424;BME280;34232;42.502;26.014;2022-11-28T11:06:30;100578.75;;;9.12;58.45
48424;BME280;34232;42.502;26.014;2022-11-28T11:08:55;100575.72;;;9.06;58.94
48424;BME280;34232;42.502;26.014;2022-11-28T11:11:28;100571.31;;;9.06;59.05
48424;BME280;34232;42.502;26.014;2022-11-28T11:14:03;100559.31;;;9.02;58.76
48424;BME280;34232;42.502;26.014;2022-11-28T11:16:52;100559.97;;;9.06;58.36
48424;BME280;34232;42.502;26.014;2022-11-28T11:19:26;100569.53;;;9.07;58.43
48424;BME280;34232;42.502;26.014;2022-11-28T11:22:16;100566.25;;;9.03;59.09
48424;BME280;34232;42.502;26.014;2022-11-28T11:27:29;100578.66;;;9.01;58.48
48424;BME280;34232;42.502;26.014;2022-11-28T11:29:55;100570.75;;;9.01;58.74
48424;BME280;34232;42.502;26.014;2022-11-28T11:32:26;100569.19;;;9.11;58.91
48424;BME280;34232;42.502;26.014;2022-11-28T11:34:55;100572.56;;;9.13;60.62
48424;BME280;34232;42.502;26.014;2022-11-28T11:39:57;100565.75;;;9.24;61.77
48424;BME280;34232;42.502;26.014;2022-11-28T11:42:28;100558.91;;;9.21;61.44
48424;BME280;34232;42.502;26.014;2022-11-28T11:44:54;100557.13;;;9.22;61.69
48424;BME280;34232;42.502;26.014;2022-11-28T11:47:42;100561.44;;;9.23;62.01
48424;BME280;34232;42.502;26.014;2022-11-28T11:50:19;100559.66;;;9.23;62.54
48424;BME280;34232;42.502;26.014;2022-11-28T11:55:31;100565.75;;;9.24;61.99
48424;BME280;34232;42.502;26.014;2022-11-28T11:58:01;100560.78;;;9.32;61.81
48424;BME280;34232;42.502;26.014;2022-11-28T12:00:35;100566.56;;;9.37;60.88
48424;BME280;34232;42.502;26.014;2022-11-28T12:05:52;100545.03;;;9.32;61.43
48424;BME280;34232;42.502;26.014;2022-11-28T12:10:54;100546.50;;;9.36;61.07
48424;BME280;34232;42.502;26.014;2022-11-28T12:13:23;100553.00;;;9.43;61.82
48424;BME280;34232;42.502;26.014;2022-11-28T12:16:03;100556.81;;;9.39;63.15
48424;BME280;34232;42.502;26.014;2022-11-28T12:21:26;100553.56;;;9.23;63.20
48424;BME280;34232;42.502;26.014;2022-11-28T12:24:09;100570.06;;;9.25;63.07
48424;BME280;34232;42.502;26.014;2022-11-28T12:37:28;100568.97;;;8.89;62.75
48424;BME280;34232;42.502;26.014;2022-11-28T12:40:13;100564.88;;;8.85;63.62
48424;BME280;34232;42.502;26.014;2022-11-28T12:45:34;100571.50;;;8.91;63.44
48424;BME280;34232;42.502;26.014;2022-11-28T12:55:57;100557.81;;;8.86;64.43
48424;BME280;34232;42.502;26.014;2022-11-28T12:58:52;100566.66;;;8.85;65.59
48424;BME280;34232;42.502;26.014;2022-11-28T13:04:03;100567.28;;;8.88;67.95
48424;BME280;34232;42.502;26.014;2022-11-28T13:09:37;100569.34;;;8.70;70.57
48424;BME280;34232;42.502;26.014;2022-11-28T13:20:28;100574.09;;;8.38;74.29
48424;BME280;34232;42.502;26.014;2022-11-28T13:23:05;100578.50;;;8.24;73.70
48424;BME280;34232;42.502;26.014;2022-11-28T13:25:53;100574.53;;;8.31;74.82
48424;BME280;34232;42.502;26.014;2022-11-28T13:31:03;100567.28;;;8.22;76.82
48424;BME280;34232;42.502;26.014;2022-11-28T13:33:52;100587.22;;;8.24;76.03
48424;BME280;34232;42.502;26.014;2022-11-28T13:41:23;100578.81;;;8.19;76.33
48424;BME280;34232;42.502;26.014;2022-11-28T13:44:03;100584.03;;;8.19;76.94
48424;BME280;34232;42.502;26.014;2022-11-28T13:46:32;100576.03;;;8.08;77.61
48424;BME280;34232;42.502;26.014;2022-11-28T13:49:00;100572.47;;;8.09;76.96
48424;BME280;34232;42.502;26.014;2022-11-28T13:51:28;100579.78;;;8.04;77.23
48424;BME280;34232;42.502;26.014;2022-11-28T13:56:46;100584.56;;;7.97;77.48
48424;BME280;34232;42.502;26.014;2022-11-28T13:59:20;100578.69;;;7.94;77.48
48424;BME280;34232;42.502;26.014;2022-11-28T14:01:53;100588.78;;;8.00;77.79
48424;BME280;34232;42.502;26.014;2022-11-28T14:04:21;100584.28;;;8.02;78.39
48424;BME280;34232;42.502;26.014;2022-11-28T14:06:49;100588.78;;;8.00;77.80
48424;BME280;34232;42.502;26.014;2022-11-28T14:20:56;100581.13;;;7.83;77.63
48424;BME280;34232;42.502;26.014;2022-11-28T14:25:57;100583.84;;;7.81;78.95
48424;BME280;34232;42.502;26.014;2022-11-28T14:28:28;100578.69;;;7.80;79.74
48424;BME280;34232;42.502;26.014;2022-11-28T14:33:40;100567.66;;;7.75;79.15
48424;BME280;34232;42.502;26.014;2022-11-28T14:36:35;100576.06;;;7.80;78.52
48424;BME280;34232;42.502;26.014;2022-11-28T14:47:34;100569.56;;;7.58;79.13
48424;BME280;34232;42.502;26.014;2022-11-28T14:52:29;100579.81;;;7.47;79.72
48424;BME280;34232;42.502;26.014;2022-11-28T14:54:55;100576.28;;;7.48;79.57
48424;BME280;34232;42.502;26.014;2022-11-28T14:57:29;100569.56;;;7.44;80.11
48424;BME280;34232;42.502;26.014;2022-11-28T14:59:58;100574.91;;;7.28;79.04
48424;BME280;34232;42.502;26.014;2022-11-28T15:13:10;100578.69;;;7.09;81.50
48424;BME280;34232;42.502;26.014;2022-11-28T15:15:48;100569.81;;;6.97;81.41
48424;BME280;34232;42.502;26.014;2022-11-28T15:18:16;100570.44;;;7.00;81.35
48424;BME280;34232;42.502;26.014;2022-11-28T15:21:12;100566.72;;;7.05;81.80
48424;BME280;34232;42.502;26.014;2022-11-28T15:23:40;100561.03;;;6.98;81.04
48424;BME280;34232;42.502;26.014;2022-11-28T15:26:06;100572.97;;;7.02;81.32
48424;BME280;34232;42.502;26.014;2022-11-28T15:28:32;100575.88;;;6.97;82.17
48424;BME280;34232;42.502;26.014;2022-11-28T15:31:02;100565.28;;;6.99;81.82
48424;BME280;34232;42.502;26.014;2022-11-28T15:33:31;100563.84;;;7.09;82.46
48424;BME280;34232;42.502;26.014;2022-11-28T15:36:05;100567.84;;;7.15;82.75
48424;BME280;34232;42.502;26.014;2022-11-28T15:38:36;100545.59;;;7.08;82.42
48424;BME280;34232;42.502;26.014;2022-11-28T15:41:06;100564.50;;;7.13;81.52
48424;BME280;34232;42.502;26.014;2022-11-28T15:43:32;100549.16;;;7.07;81.25
48424;BME280;34232;42.502;26.014;2022-11-28T15:46:00;100567.84;;;7.15;82.36
48424;BME280;34232;42.502;26.014;2022-11-28T15:48:36;100558.88;;;7.19;83.11
48424;BME280;34232;42.502;26.014;2022-11-28T15:51:04;100542.22;;;7.06;82.57
48424;BME280;34232;42.502;26.014;2022-11-28T15:53:30;100565.44;;;7.12;82.33